Terminal Aerodrome Forecast
Issued by NWS North Platte, NE

Current Version | Previous Version | Text Only | Print | Product List | Glossary On
Versions: 1 2 3 4 5 6 7 8 9 10 11 12 13 14 15 16 17 18 19 20 21 22
000
FTUS43 KLBF 060100 AAA
TAFVTN
TAF AMD
KVTN 060154Z 0602/0624 15012KT P6SM -SHRA BKN040 OVC080
     FM060500 14009KT 5SM -DZ BR OVC015
     FM061000 13010KT 3SM -DZ BR OVC008
     FM061500 14012KT P6SM OVC015
     FM061800 16012KT P6SM -SHRA OVC035=

USA.gov is the U.S. government's official web portal to all federal, state and local government web resources and services.